Time;durP1;ratioP1;P1;durP2;ratioP2;P2;SDS_P1;SDS_P2;PMS_P1;PMS_P2;Temp;Humidity;BMP_temperature;BMP_pressure;BME280_temperature;BME280_humidity;BME280_pressure;Samples;Min_cycle;Max_cycle;Signal;HPM_P1;HPM_P2
2022/02/14 00:01:49;;;;;;;2.58;2.38;;;;;;;;;;6240805;23;20421;-70
2022/02/14 00:04:15;;;;;;;3.03;2.75;;;;;;;;;;6240644;23;20090;-71
2022/02/14 00:06:41;;;;;;;5.03;2.83;;;;;;;;;;6239503;23;20441;-71
2022/02/14 00:09:07;;;;;;;2.25;2.05;;;;;;;;;;6241020;23;20016;-70
2022/02/14 00:11:33;;;;;;;3.67;2.40;;;;;;;;;;6241216;23;20095;-71
2022/02/14 00:13:59;;;;;;;3.00;2.72;;;;;;;;;;6240618;23;20012;-68
2022/02/14 00:16:25;;;;;;;2.15;2.05;;;;;;;;;;6241171;23;20016;-70
2022/02/14 00:18:52;;;;;;;2.53;2.28;;;;;;;;;;6240813;23;20012;-71
2022/02/14 00:21:18;;;;;;;2.08;1.95;;;;;;;;;;6240814;23;20066;-70
2022/02/14 00:23:44;;;;;;;2.20;2.00;;;;;;;;;;6240763;23;20047;-70
2022/02/14 00:26:10;;;;;;;2.17;2.03;;;;;;;;;;6240995;23;20020;-71
2022/02/14 00:28:35;;;;;;;1.83;1.73;;;;;;;;;;6241767;23;20391;-70
2022/02/14 00:31:03;;;;;;;2.60;2.25;;;;;;;;;;6241270;23;20043;-70
2022/02/14 00:33:29;;;;;;;3.15;2.85;;;;;;;;;;6240942;23;20011;-70
2022/02/14 00:35:55;;;;;;;2.15;2.05;;;;;;;;;;6240917;23;20012;-70
2022/02/14 00:38:21;;;;;;;2.92;2.03;;;;;;;;;;6240744;23;20016;-72
2022/02/14 00:40:47;;;;;;;2.60;2.40;;;;;;;;;;6241011;23;20012;-71
2022/02/14 00:43:12;;;;;;;2.70;2.22;;;;;;;;;;6240655;23;20091;-71
2022/02/14 00:45:38;;;;;;;1.30;1.30;;;;;;;;;;6239302;23;20019;-70
2022/02/14 00:48:05;;;;;;;3.13;2.83;;;;;;;;;;6240577;23;20008;-70
2022/02/14 00:50:31;;;;;;;1.90;1.80;;;;;;;;;;6240882;23;20116;-71
2022/02/14 00:52:56;;;;;;;1.90;1.80;;;;;;;;;;6240515;23;20470;-71
2022/02/14 00:55:22;;;;;;;3.35;2.90;;;;;;;;;;6239103;23;20504;-71
2022/02/14 00:57:49;;;;;;;3.33;2.53;;;;;;;;;;6240006;23;20012;-71
2022/02/14 01:00:16;;;;;;;4.35;2.72;;;;;;;;;;6238807;23;20070;-70
2022/02/14 01:02:42;;;;;;;3.30;2.60;;;;;;;;;;6238813;23;20007;-70
2022/02/14 01:05:08;;;;;;;3.35;2.40;;;;;;;;;;6238997;22;20047;-72
2022/02/14 01:07:35;;;;;;;2.40;2.20;;;;;;;;;;6240841;23;20012;-70
2022/02/14 01:10:01;;;;;;;2.10;2.00;;;;;;;;;;6214258;23;20342;-69
2022/02/14 01:12:29;;;;;;;2.17;1.95;;;;;;;;;;6240399;23;20016;-71
2022/02/14 01:14:54;;;;;;;3.03;2.67;;;;;;;;;;6240357;23;20016;-72
2022/02/14 01:17:21;;;;;;;2.45;2.33;;;;;;;;;;6240613;23;20020;-70
2022/02/14 01:19:46;;;;;;;3.83;2.45;;;;;;;;;;6240683;23;20092;-72
2022/02/14 01:22:13;;;;;;;2.38;2.13;;;;;;;;;;6240433;23;20008;-71
2022/02/14 01:24:39;;;;;;;3.03;2.40;;;;;;;;;;6240829;23;20116;-71
2022/02/14 01:27:05;;;;;;;6.47;3.60;;;;;;;;;;6240339;23;20086;-70
2022/02/14 01:29:31;;;;;;;2.75;2.55;;;;;;;;;;6240416;23;20411;-71
2022/02/14 01:31:57;;;;;;;5.20;2.88;;;;;;;;;;6240401;23;20055;-70
2022/02/14 01:34:23;;;;;;;3.83;2.40;;;;;;;;;;6240530;23;20016;-71
2022/02/14 01:36:49;;;;;;;3.10;2.80;;;;;;;;;;6240375;23;20019;-70
2022/02/14 01:39:14;;;;;;;2.92;2.72;;;;;;;;;;6238508;23;20016;-71
2022/02/14 01:41:40;;;;;;;6.63;2.58;;;;;;;;;;6240448;23;20074;-72
2022/02/14 01:44:10;;;;;;;2.95;2.47;;;;;;;;;;6239970;23;20012;-73
2022/02/14 01:46:36;;;;;;;3.20;2.92;;;;;;;;;;6240987;23;20016;-72
2022/02/14 01:49:02;;;;;;;4.03;2.55;;;;;;;;;;6240410;23;20772;-72
2022/02/14 01:51:28;;;;;;;3.33;3.05;;;;;;;;;;6239749;23;20023;-70
2022/02/14 01:53:54;;;;;;;2.50;2.30;;;;;;;;;;6239996;23;20011;-71
2022/02/14 01:56:20;;;;;;;3.60;2.65;;;;;;;;;;6240554;23;20464;-71
2022/02/14 01:58:45;;;;;;;1.83;1.73;;;;;;;;;;6239952;23;20035;-71
2022/02/14 02:01:11;;;;;;;3.20;2.92;;;;;;;;;;6240051;23;20016;-71
2022/02/14 02:03:37;;;;;;;2.60;2.50;;;;;;;;;;6240406;23;20250;-71
2022/02/14 02:06:04;;;;;;;2.40;2.30;;;;;;;;;;6239599;22;20035;-70
2022/02/14 02:08:30;;;;;;;9.30;2.78;;;;;;;;;;6238791;23;20062;-72
2022/02/14 02:12:22;;;;;;;3.28;2.85;;;;;;;;;;6240322;23;20056;-71
2022/02/14 02:13:50;;;;;;;4.43;2.47;;;;;;;;;;6242195;23;20023;-71
2022/02/14 02:16:16;;;;;;;2.88;2.38;;;;;;;;;;6242292;23;20008;-71
2022/02/14 02:18:42;;;;;;;3.25;2.70;;;;;;;;;;6240544;23;20016;-70
2022/02/14 02:21:08;;;;;;;2.40;2.30;;;;;;;;;;6240084;23;20677;-70
2022/02/14 02:23:34;;;;;;;3.20;2.63;;;;;;;;;;6242029;23;20020;-71
2022/02/14 02:26:00;;;;;;;3.72;2.47;;;;;;;;;;6240317;23;20016;-72
2022/02/14 02:28:26;;;;;;;3.00;2.70;;;;;;;;;;6242026;23;20012;-72
2022/02/14 02:30:51;;;;;;;4.20;2.60;;;;;;;;;;6242008;23;20012;-71
2022/02/14 02:33:17;;;;;;;2.70;2.50;;;;;;;;;;6240418;23;20104;-71
2022/02/14 02:35:43;;;;;;;2.60;2.40;;;;;;;;;;6242229;23;20050;-71
2022/02/14 02:38:09;;;;;;;3.83;2.70;;;;;;;;;;6241722;23;20012;-71
2022/02/14 02:40:35;;;;;;;2.83;2.63;;;;;;;;;;6242092;23;20074;-72
2022/02/14 02:43:01;;;;;;;2.65;2.47;;;;;;;;;;6239782;23;20008;-70
2022/02/14 02:45:27;;;;;;;2.78;2.58;;;;;;;;;;6241722;23;20470;-72
2022/02/14 02:47:55;;;;;;;3.20;2.90;;;;;;;;;;6214880;23;20012;-71
2022/02/14 02:50:20;;;;;;;4.07;2.80;;;;;;;;;;6242127;23;20015;-71
2022/02/14 02:52:46;;;;;;;2.38;2.20;;;;;;;;;;6241609;23;20016;-70
2022/02/14 02:55:12;;;;;;;3.97;2.40;;;;;;;;;;6241962;23;20079;-71
2022/02/14 02:57:38;;;;;;;4.00;2.70;;;;;;;;;;6240377;22;20099;-72
2022/02/14 03:00:04;;;;;;;2.50;2.28;;;;;;;;;;6241341;23;20043;-70
2022/02/14 03:02:30;;;;;;;2.83;2.63;;;;;;;;;;6241887;23;20031;-71
2022/02/14 03:04:56;;;;;;;3.10;2.22;;;;;;;;;;6241046;22;20040;-71
2022/02/14 03:07:22;;;;;;;2.63;2.25;;;;;;;;;;6241511;23;20028;-71
2022/02/14 03:09:48;;;;;;;3.20;2.90;;;;;;;;;;6241372;23;20108;-71
2022/02/14 03:12:14;;;;;;;2.95;2.75;;;;;;;;;;6240047;23;20102;-71
2022/02/14 03:14:40;;;;;;;3.13;2.83;;;;;;;;;;6241567;23;20012;-71
2022/02/14 03:17:07;;;;;;;3.35;3.05;;;;;;;;;;6239902;23;20530;-73
2022/02/14 03:19:33;;;;;;;2.15;2.03;;;;;;;;;;6241252;23;20039;-72
2022/02/14 03:21:59;;;;;;;2.50;2.30;;;;;;;;;;6240400;23;20015;-71
2022/02/14 03:24:25;;;;;;;3.60;2.80;;;;;;;;;;6240584;23;20020;-71
2022/02/14 03:26:51;;;;;;;3.25;2.53;;;;;;;;;;6241426;23;20012;-71
2022/02/14 03:29:17;;;;;;;2.78;2.58;;;;;;;;;;6241487;23;20055;-71
2022/02/14 03:31:42;;;;;;;2.47;2.28;;;;;;;;;;6242028;23;20008;-72
2022/02/14 03:34:08;;;;;;;4.25;3.85;;;;;;;;;;6240934;23;20338;-72
2022/02/14 03:36:34;;;;;;;3.10;2.85;;;;;;;;;;6241603;23;20330;-73
2022/02/14 03:39:00;;;;;;;3.42;2.72;;;;;;;;;;6240999;23;20015;-72
2022/02/14 03:41:26;;;;;;;2.47;2.28;;;;;;;;;;6241121;23;20008;-71
2022/02/14 03:43:51;;;;;;;2.75;2.55;;;;;;;;;;6241142;23;20012;-71
2022/02/14 03:46:17;;;;;;;2.75;2.53;;;;;;;;;;6248393;23;20020;-71
2022/02/14 03:48:43;;;;;;;4.35;2.80;;;;;;;;;;6247768;22;20012;-72
2022/02/14 03:51:09;;;;;;;3.28;3.08;;;;;;;;;;6250936;23;20035;-72
2022/02/14 03:53:35;;;;;;;2.95;2.75;;;;;;;;;;6247432;23;20023;-71
2022/02/14 03:56:01;;;;;;;3.50;3.17;;;;;;;;;;6245452;23;20436;-72
2022/02/14 03:58:28;;;;;;;4.85;3.05;;;;;;;;;;6241059;23;20101;-73
2022/02/14 04:00:54;;;;;;;2.55;2.35;;;;;;;;;;6238961;22;20020;-72
2022/02/14 04:03:20;;;;;;;2.95;2.65;;;;;;;;;;6241061;22;20004;-71
2022/02/14 04:05:46;;;;;;;2.53;2.38;;;;;;;;;;6241389;23;20030;-73
2022/02/14 04:08:12;;;;;;;6.80;2.75;;;;;;;;;;6240296;23;20058;-71
2022/02/14 04:10:39;;;;;;;3.20;2.88;;;;;;;;;;6240959;23;20016;-71
2022/02/14 04:13:05;;;;;;;3.40;2.92;;;;;;;;;;6240716;23;20008;-71
2022/02/14 04:15:31;;;;;;;4.72;2.95;;;;;;;;;;6241080;23;20008;-71
2022/02/14 04:17:57;;;;;;;3.75;3.00;;;;;;;;;;6237684;23;20059;-72
2022/02/14 04:20:23;;;;;;;4.50;3.13;;;;;;;;;;6241309;23;20110;-72
2022/02/14 04:22:49;;;;;;;3.55;3.20;;;;;;;;;;6236138;23;20531;-71
2022/02/14 04:25:15;;;;;;;2.35;2.20;;;;;;;;;;6237696;23;20526;-71
2022/02/14 04:27:42;;;;;;;5.10;3.38;;;;;;;;;;6236695;23;20015;-72
2022/02/14 04:30:08;;;;;;;4.85;3.20;;;;;;;;;;6237484;23;20070;-71
2022/02/14 04:32:34;;;;;;;6.20;3.78;;;;;;;;;;6238378;23;20008;-71
2022/02/14 04:35:00;;;;;;;3.50;3.00;;;;;;;;;;6237197;23;20027;-71
2022/02/14 04:37:26;;;;;;;6.10;3.50;;;;;;;;;;6240725;23;20008;-72
2022/02/14 04:39:52;;;;;;;5.65;3.67;;;;;;;;;;6238807;23;20012;-71
2022/02/14 04:42:19;;;;;;;4.07;3.30;;;;;;;;;;6240744;23;20019;-71
2022/02/14 04:44:44;;;;;;;3.17;2.72;;;;;;;;;;6240524;23;20024;-71
2022/02/14 04:47:10;;;;;;;3.60;3.08;;;;;;;;;;6240548;23;20008;-72
2022/02/14 04:49:36;;;;;;;4.28;3.10;;;;;;;;;;6240530;23;20012;-72
2022/02/14 04:52:02;;;;;;;5.05;3.67;;;;;;;;;;6240328;23;20039;-72
2022/02/14 04:54:28;;;;;;;2.50;2.22;;;;;;;;;;6240531;23;20016;-72
2022/02/14 04:56:54;;;;;;;4.22;2.67;;;;;;;;;;6239407;23;20043;-72
2022/02/14 04:59:20;;;;;;;3.05;2.75;;;;;;;;;;6240588;23;20019;-73
2022/02/14 05:01:46;;;;;;;3.47;3.10;;;;;;;;;;6238510;23;20008;-72
2022/02/14 05:04:12;;;;;;;3.05;2.28;;;;;;;;;;6239856;23;20333;-71
2022/02/14 05:06:38;;;;;;;6.43;3.42;;;;;;;;;;6240903;23;20020;-72
2022/02/14 05:09:03;;;;;;;3.67;3.05;;;;;;;;;;6240411;23;20019;-72
2022/02/14 05:11:29;;;;;;;2.58;2.33;;;;;;;;;;6240406;23;20405;-71
2022/02/14 05:13:55;;;;;;;3.40;2.95;;;;;;;;;;6240070;22;20016;-72
2022/02/14 05:16:23;;;;;;;3.20;2.90;;;;;;;;;;6239757;23;20058;-70
2022/02/14 05:18:49;;;;;;;2.95;2.65;;;;;;;;;;6240285;23;20023;-71
2022/02/14 05:21:15;;;;;;;2.20;2.08;;;;;;;;;;6239757;23;20012;-72
2022/02/14 05:23:41;;;;;;;3.67;3.33;;;;;;;;;;6238393;23;20461;-72
2022/02/14 05:26:07;;;;;;;3.75;3.35;;;;;;;;;;6240393;23;20073;-71
2022/02/14 05:28:33;;;;;;;3.17;2.78;;;;;;;;;;6240683;23;20014;-70
2022/02/14 05:30:58;;;;;;;5.43;3.13;;;;;;;;;;6240454;23;20116;-71
2022/02/14 05:33:24;;;;;;;2.70;2.50;;;;;;;;;;6240481;23;20008;-71
2022/02/14 05:35:50;;;;;;;3.88;2.72;;;;;;;;;;6213714;23;20016;-72
2022/02/14 05:38:16;;;;;;;3.42;2.80;;;;;;;;;;6240011;23;20087;-72
2022/02/14 05:40:42;;;;;;;3.30;2.60;;;;;;;;;;6238767;23;20012;-70
2022/02/14 05:43:08;;;;;;;2.67;2.47;;;;;;;;;;6239864;23;20012;-73
2022/02/14 05:45:34;;;;;;;4.35;3.30;;;;;;;;;;6242050;23;20030;-73
2022/02/14 05:47:59;;;;;;;6.63;3.47;;;;;;;;;;6242364;23;20015;-73
2022/02/14 05:50:25;;;;;;;2.88;2.67;;;;;;;;;;6241050;23;20012;-73
2022/02/14 05:52:51;;;;;;;3.65;2.80;;;;;;;;;;6229434;23;20069;-74
2022/02/14 05:55:17;;;;;;;4.05;2.78;;;;;;;;;;6184845;23;20012;-73
2022/02/14 05:57:43;;;;;;;5.65;2.67;;;;;;;;;;6240743;23;20091;-74
2022/02/14 06:00:09;;;;;;;2.50;2.22;;;;;;;;;;6239052;23;20081;-76
2022/02/14 06:02:36;;;;;;;4.10;3.80;;;;;;;;;;6214006;23;20012;-74
2022/02/14 06:05:04;;;;;;;3.45;3.15;;;;;;;;;;6237888;22;20031;-75
2022/02/14 06:07:30;;;;;;;3.00;2.70;;;;;;;;;;6240036;23;20087;-75
2022/02/14 06:09:57;;;;;;;2.80;2.60;;;;;;;;;;6241068;23;20103;-76
2022/02/14 06:12:23;;;;;;;3.20;2.90;;;;;;;;;;6237087;23;20099;-75
2022/02/14 06:14:48;;;;;;;3.30;3.03;;;;;;;;;;6239322;23;20051;-75
2022/02/14 06:17:14;;;;;;;3.15;2.80;;;;;;;;;;6238357;23;20150;-75
2022/02/14 06:19:40;;;;;;;3.22;2.95;;;;;;;;;;6213398;23;20540;-75
2022/02/14 06:22:06;;;;;;;3.63;3.33;;;;;;;;;;6238411;23;20030;-75
2022/02/14 06:24:32;;;;;;;4.45;4.03;;;;;;;;;;6240847;23;20024;-76
2022/02/14 06:26:58;;;;;;;5.72;3.45;;;;;;;;;;6238550;23;20631;-76
2022/02/14 06:29:24;;;;;;;3.42;2.97;;;;;;;;;;6240759;23;20016;-76
2022/02/14 06:31:50;;;;;;;2.63;2.50;;;;;;;;;;6240423;23;20087;-76
2022/02/14 06:34:16;;;;;;;3.10;2.80;;;;;;;;;;6240218;23;20008;-74
2022/02/14 06:36:42;;;;;;;2.30;2.20;;;;;;;;;;6237811;23;20018;-75
2022/02/14 06:39:09;;;;;;;3.80;3.53;;;;;;;;;;6238258;23;20016;-75
2022/02/14 06:41:34;;;;;;;3.35;3.08;;;;;;;;;;6240409;23;20016;-76
2022/02/14 06:44:00;;;;;;;3.60;3.30;;;;;;;;;;6240069;23;20016;-76
2022/02/14 06:46:26;;;;;;;3.10;2.78;;;;;;;;;;6239033;23;20016;-75
2022/02/14 06:48:52;;;;;;;3.10;2.90;;;;;;;;;;6240483;23;20035;-74
2022/02/14 06:51:17;;;;;;;7.32;3.50;;;;;;;;;;6238625;23;20018;-75
2022/02/14 06:53:44;;;;;;;3.92;3.13;;;;;;;;;;6238907;22;20091;-75
2022/02/14 06:56:10;;;;;;;6.57;4.07;;;;;;;;;;6239724;23;20091;-75
2022/02/14 06:58:36;;;;;;;4.70;3.55;;;;;;;;;;6240340;23;20046;-75
2022/02/14 07:01:02;;;;;;;3.60;3.30;;;;;;;;;;6237964;22;20019;-74
2022/02/14 07:03:28;;;;;;;4.10;3.13;;;;;;;;;;6238196;22;20066;-75
